Time;durP1;ratioP1;P1;durP2;ratioP2;P2;SDS_P1;SDS_P2;PMS_P1;PMS_P2;Temp;Humidity;BMP_temperature;BMP_pressure;BME280_temperature;BME280_humidity;BME280_pressure;Samples;Min_cycle;Max_cycle;Signal;HPM_P1;HPM_P2
2021/05/24 00:01:02;;;;;;;4.68;0.85;;;;;;;11.61;64.30;99781.16;5057007;28;20045;-70
2021/05/24 00:03:29;;;;;;;1.55;0.73;;;;;;;11.52;64.72;99782.72;5056871;28;20076;-69
2021/05/24 00:05:56;;;;;;;3.00;1.02;;;;;;;11.52;64.59;99774.69;5056793;28;20052;-70
2021/05/24 00:08:23;;;;;;;1.40;0.57;;;;;;;11.52;64.56;99768.47;5056829;28;20382;-69
2021/05/24 00:10:49;;;;;;;2.72;0.80;;;;;;;11.49;64.63;99766.03;5056503;28;20045;-70
2021/05/24 00:13:18;;;;;;;4.38;0.80;;;;;;;11.43;65.00;99759.28;5055531;28;20056;-70
2021/05/24 00:15:48;;;;;;;5.97;1.02;;;;;;;11.44;65.22;99765.50;5055417;28;20060;-70
2021/05/24 00:18:15;;;;;;;2.65;0.90;;;;;;;11.44;65.11;99754.81;5056419;28;20052;-70
2021/05/24 00:20:55;;;;;;;2.88;0.80;;;;;;;11.43;65.44;99759.28;5056479;28;20052;-70
2021/05/24 00:23:23;;;;;;;1.50;0.70;;;;;;;11.41;65.77;99748.72;5056436;28;20063;-70
2021/05/24 00:25:50;;;;;;;4.28;1.20;;;;;;;11.37;65.99;99741.03;5055320;28;20052;-69
2021/05/24 00:28:17;;;;;;;2.63;0.95;;;;;;;11.40;65.70;99751.50;5056258;28;20393;-69
2021/05/24 00:30:47;;;;;;;2.50;0.80;;;;;;;11.38;65.62;99738.25;5055935;28;20507;-69
2021/05/24 00:33:14;;;;;;;3.15;0.70;;;;;;;11.39;65.82;99747.97;5056066;28;20049;-69
2021/05/24 00:35:41;;;;;;;1.40;0.80;;;;;;;11.36;66.05;99742.84;5056139;28;20060;-70
2021/05/24 00:38:08;;;;;;;6.28;1.33;;;;;;;11.27;66.62;99727.47;5055843;28;20049;-70
2021/05/24 00:40:36;;;;;;;2.72;0.90;;;;;;;11.33;66.56;99728.88;5055816;28;20389;-70
2021/05/24 00:43:06;;;;;;;2.83;0.98;;;;;;;11.33;66.42;99728.88;5056056;28;20049;-70
2021/05/24 00:45:34;;;;;;;4.18;1.00;;;;;;;11.31;66.64;99723.63;5055964;28;20114;-70
2021/05/24 00:48:01;;;;;;;1.75;0.70;;;;;;;11.30;66.65;99718.38;5055715;28;20076;-69
2021/05/24 00:50:27;;;;;;;3.03;1.00;;;;;;;11.25;67.10;99710.69;5055676;28;20060;-70
2021/05/24 00:52:54;;;;;;;2.92;0.88;;;;;;;11.21;67.17;99704.72;5055789;28;20064;-70
2021/05/24 00:55:21;;;;;;;4.82;0.82;;;;;;;11.25;67.12;99708.91;5055499;28;20049;-70
2021/05/24 00:57:48;;;;;;;3.22;0.90;;;;;;;11.17;67.27;99689.84;5054252;28;20696;-70
2021/05/24 01:00:35;;;;;;;3.08;1.35;;;;;;;11.25;66.99;99700.88;5055516;28;20083;-70
2021/05/24 01:03:03;;;;;;;5.20;0.85;;;;;;;11.24;66.93;99699.16;5055551;28;20107;-70
2021/05/24 01:05:30;;;;;;;3.60;0.98;;;;;;;11.15;67.61;99697.13;5055468;28;20045;-70
2021/05/24 01:07:56;;;;;;;3.03;0.90;;;;;;;11.20;67.34;99694.13;5055356;28;20211;-70
2021/05/24 01:10:24;;;;;;;4.38;0.80;;;;;;;11.19;67.58;99695.09;5055578;28;20099;-70
2021/05/24 01:12:50;;;;;;;2.17;0.85;;;;;;;11.22;67.32;99685.06;5055523;28;20052;-70
2021/05/24 01:15:20;;;;;;;2.40;0.82;;;;;;;11.26;67.25;99685.69;5054450;28;20132;-70
2021/05/24 01:17:46;;;;;;;2.30;0.88;;;;;;;11.26;67.30;99675.88;5051588;28;20088;-70
2021/05/24 01:20:13;;;;;;;1.30;0.68;;;;;;;11.25;67.41;99670.63;5035180;28;20057;-70
2021/05/24 01:22:45;;;;;;;2.00;0.90;;;;;;;11.31;67.27;99672.00;5035474;28;20061;-70
2021/05/24 01:25:11;;;;;;;1.15;0.90;;;;;;;11.37;67.01;99671.56;5035521;28;20053;-70
2021/05/24 01:27:38;;;;;;;2.20;0.93;;;;;;;11.39;67.35;99662.47;5034502;28;20419;-70
2021/05/24 01:30:06;;;;;;;5.35;1.20;;;;;;;11.35;67.20;99663.66;5035303;28;20066;-70
2021/05/24 01:32:33;;;;;;;2.95;0.60;;;;;;;11.40;67.21;99660.66;5035550;28;20107;-70
2021/05/24 01:34:59;;;;;;;1.45;0.73;;;;;;;11.39;67.21;99661.63;5034152;28;20099;-70
2021/05/24 01:37:26;;;;;;;2.70;0.90;;;;;;;11.40;66.90;99642.78;5035088;28;20107;-70
2021/05/24 01:39:53;;;;;;;2.33;0.85;;;;;;;11.53;66.81;99658.78;5035339;28;20062;-70
2021/05/24 01:42:20;;;;;;;3.72;0.90;;;;;;;11.48;66.92;99652.94;5035126;28;20053;-70
2021/05/24 01:44:46;;;;;;;2.92;0.93;;;;;;;11.52;66.90;99646.41;5035338;28;20390;-70
2021/05/24 01:47:13;;;;;;;1.70;0.60;;;;;;;11.55;66.72;99632.81;5034994;28;20053;-70
2021/05/24 01:49:46;;;;;;;1.38;0.65;;;;;;;11.62;66.66;99637.69;5033859;28;20049;-70
2021/05/24 01:52:15;;;;;;;1.30;0.80;;;;;;;11.65;66.64;99619.63;5035343;28;20053;-70
2021/05/24 01:54:42;;;;;;;4.22;0.80;;;;;;;11.68;66.60;99621.22;5035317;28;20050;-70
2021/05/24 01:57:10;;;;;;;2.50;0.80;;;;;;;11.66;66.88;99621.31;5034843;28;20481;-70
2021/05/24 01:59:37;;;;;;;7.97;1.30;;;;;;;11.67;66.83;99622.19;5034932;28;20391;-70
2021/05/24 02:02:04;;;;;;;3.50;1.00;;;;;;;11.69;66.73;99617.56;5035126;28;20049;-70
2021/05/24 02:04:32;;;;;;;2.42;0.90;;;;;;;11.71;66.19;99612.09;5034870;28;20053;-70
2021/05/24 02:06:58;;;;;;;4.28;1.73;;;;;;;11.68;66.62;99610.50;5034942;28;20054;-70
2021/05/24 02:09:25;;;;;;;3.63;0.70;;;;;;;11.74;66.30;99612.72;5034798;28;20057;-70
2021/05/24 02:11:54;;;;;;;3.20;0.70;;;;;;;11.82;66.03;99602.31;5033679;28;20442;-70
2021/05/24 02:14:22;;;;;;;2.13;0.80;;;;;;;11.82;66.39;99602.31;5035023;28;20107;-70
2021/05/24 02:16:51;;;;;;;1.92;0.75;;;;;;;11.80;66.34;99601.59;5034582;28;20100;-70
2021/05/24 02:19:19;;;;;;;7.57;1.13;;;;;;;11.78;66.64;99592.81;5051508;28;20053;-70
2021/05/24 02:21:46;;;;;;;5.10;0.80;;;;;;;11.86;66.01;99594.03;5058621;28;20049;-71
2021/05/24 02:24:14;;;;;;;2.80;0.80;;;;;;;11.91;65.79;99600.75;5058509;28;20056;-70
2021/05/24 02:26:43;;;;;;;2.67;0.73;;;;;;;11.95;65.55;99596.03;5058553;28;20045;-70
2021/05/24 02:29:10;;;;;;;2.42;0.77;;;;;;;11.98;65.24;99598.47;5058542;28;20342;-70
2021/05/24 02:31:38;;;;;;;3.35;0.80;;;;;;;12.03;65.26;99599.00;5058512;28;20048;-70
2021/05/24 02:34:06;;;;;;;2.17;0.70;;;;;;;11.99;65.65;99594.81;5058576;28;20203;-70
2021/05/24 02:36:35;;;;;;;2.45;0.68;;;;;;;12.00;65.16;99585.84;5058540;28;20045;-70
2021/05/24 02:39:07;;;;;;;2.50;0.68;;;;;;;11.96;65.43;99592.38;5057454;28;20045;-70
2021/05/24 02:41:36;;;;;;;5.90;1.05;;;;;;;11.98;65.42;99582.41;5058213;28;20049;-70
2021/05/24 02:44:06;;;;;;;1.80;0.70;;;;;;;11.98;65.13;99573.56;5058075;28;20431;-70
2021/05/24 02:46:33;;;;;;;2.22;0.82;;;;;;;11.97;65.34;99582.56;5058031;28;20045;-69
2021/05/24 02:49:00;;;;;;;7.38;0.98;;;;;;;11.94;65.29;99573.78;5058405;28;20056;-70
2021/05/24 02:51:27;;;;;;;2.30;0.63;;;;;;;11.96;65.25;99576.34;5057743;28;20057;-70
2021/05/24 02:53:53;;;;;;;3.70;0.82;;;;;;;11.97;65.31;99574.53;5058111;28;20426;-70
2021/05/24 02:56:20;;;;;;;1.70;0.85;;;;;;;12.01;65.16;99570.63;5058247;28;20422;-70
2021/05/24 02:58:47;;;;;;;5.57;0.93;;;;;;;11.98;65.13;99568.22;5058088;28;20058;-70
2021/05/24 03:01:14;;;;;;;2.67;1.13;;;;;;;11.93;65.58;99566.72;5057879;28;20434;-70
2021/05/24 03:03:41;;;;;;;1.80;0.88;;;;;;;11.94;65.19;99559.56;5057936;28;20064;-70
2021/05/24 03:06:08;;;;;;;2.00;0.68;;;;;;;11.95;65.29;99559.44;5057913;28;20094;-70
2021/05/24 03:08:35;;;;;;;1.75;0.80;;;;;;;11.98;65.17;99557.50;5057869;28;20178;-70
2021/05/24 03:11:02;;;;;;;4.22;0.93;;;;;;;11.96;65.16;99554.94;5057994;28;20064;-70
2021/05/24 03:13:29;;;;;;;3.72;1.00;;;;;;;11.99;64.95;99560.03;5057839;28;20053;-70
2021/05/24 03:15:56;;;;;;;3.22;0.65;;;;;;;11.98;64.88;99544.13;5057583;28;20056;-70
2021/05/24 03:18:22;;;;;;;4.32;0.93;;;;;;;12.03;65.03;99558.00;5032182;28;20053;-70
2021/05/24 03:20:49;;;;;;;9.52;1.10;;;;;;;11.79;65.56;99532.16;5037861;28;20438;-70
2021/05/24 03:23:16;;;;;;;3.05;0.95;;;;;;;11.87;65.67;99551.16;5037382;28;20458;-69
2021/05/24 03:25:43;;;;;;;3.10;1.00;;;;;;;11.94;65.19;99552.38;5037455;28;20135;-70
2021/05/24 03:28:09;;;;;;;5.10;0.90;;;;;;;11.89;65.48;99554.59;5036580;28;20382;-71
2021/05/24 03:30:36;;;;;;;2.33;0.80;;;;;;;11.84;65.48;99559.41;5036032;28;20431;-70
2021/05/24 03:33:03;;;;;;;3.47;0.82;;;;;;;11.80;65.68;99556.13;5036111;28;20346;-70
2021/05/24 03:35:29;;;;;;;2.85;1.05;;;;;;;11.74;66.45;99545.91;5037494;28;20061;-70
2021/05/24 03:37:56;;;;;;;3.63;0.90;;;;;;;11.70;66.69;99547.09;5037306;28;20386;-70
2021/05/24 03:40:23;;;;;;;3.97;1.10;;;;;;;11.72;66.21;99544.31;5037450;28;20049;-70
2021/05/24 03:42:49;;;;;;;8.48;1.10;;;;;;;11.68;66.42;99549.03;5036357;28;20054;-70
2021/05/24 03:45:21;;;;;;;3.58;0.80;;;;;;;11.61;66.61;99547.78;5037471;28;20057;-70
2021/05/24 03:47:49;;;;;;;2.40;0.90;;;;;;;11.63;66.44;99549.38;5038119;28;20103;-70
2021/05/24 03:50:17;;;;;;;4.30;0.95;;;;;;;11.62;66.56;99557.50;5037614;28;20072;-70
2021/05/24 03:52:44;;;;;;;4.53;0.90;;;;;;;11.64;66.64;99552.88;5036696;28;20050;-70
2021/05/24 03:55:14;;;;;;;4.35;1.00;;;;;;;11.62;65.71;99550.34;5038095;28;20057;-69
2021/05/24 03:57:41;;;;;;;3.20;1.10;;;;;;;11.65;65.91;99557.25;5037646;28;20049;-70
2021/05/24 04:00:09;;;;;;;3.35;0.90;;;;;;;11.53;66.27;99538.53;5036208;28;20049;-71
2021/05/24 04:02:36;;;;;;;2.47;0.90;;;;;;;11.65;65.91;99558.13;5036418;28;20049;-70
2021/05/24 04:05:13;;;;;;;3.58;1.15;;;;;;;11.62;65.77;99558.38;5037644;28;20053;-70
2021/05/24 04:07:41;;;;;;;7.53;0.95;;;;;;;11.68;65.82;99552.53;5037691;28;20533;-69
2021/05/24 04:10:09;;;;;;;3.60;1.15;;;;;;;11.67;65.68;99544.66;5037748;28;20049;-70
2021/05/24 04:12:35;;;;;;;3.10;0.82;;;;;;;11.61;66.04;99545.13;5036885;28;20126;-71
2021/05/24 04:15:02;;;;;;;1.35;0.73;;;;;;;11.52;66.19;99530.63;5052071;28;20054;-71
2021/05/24 04:17:30;;;;;;;2.63;0.57;;;;;;;11.62;65.70;99530.78;5037181;28;20338;-71
2021/05/24 04:19:58;;;;;;;3.72;1.02;;;;;;;11.54;65.79;99532.22;5056561;28;20134;-70
2021/05/24 04:22:24;;;;;;;4.57;1.02;;;;;;;11.66;65.31;99532.25;5055307;28;20076;-70
2021/05/24 04:24:51;;;;;;;3.47;1.10;;;;;;;11.66;65.34;99524.25;5056246;28;20117;-70
2021/05/24 04:27:18;;;;;;;2.83;1.13;;;;;;;11.72;64.57;99529.09;5056279;28;20445;-71
2021/05/24 04:29:46;;;;;;;4.28;0.90;;;;;;;11.72;64.54;99517.56;5056127;28;20496;-71
2021/05/24 04:32:13;;;;;;;3.30;0.93;;;;;;;11.78;64.72;99528.63;5056054;28;20103;-70
2021/05/24 04:34:40;;;;;;;1.38;0.75;;;;;;;11.77;64.67;99513.56;5056358;28;20052;-70
2021/05/24 04:37:07;;;;;;;3.10;0.82;;;;;;;11.80;64.67;99508.00;5056324;28;20053;-71
2021/05/24 04:39:33;;;;;;;3.00;0.95;;;;;;;11.93;63.95;99517.75;5054837;28;20048;-71
2021/05/24 04:42:01;;;;;;;6.25;1.42;;;;;;;11.94;64.20;99522.13;5055644;28;20049;-71
2021/05/24 04:44:27;;;;;;;4.97;1.60;;;;;;;11.98;63.62;99520.06;5055115;28;20157;-70
2021/05/24 04:46:54;;;;;;;6.47;1.60;;;;;;;11.96;63.89;99517.50;5055711;28;20057;-70
2021/05/24 04:49:20;;;;;;;4.68;1.75;;;;;;;11.94;64.25;99511.44;5055805;28;20395;-70
2021/05/24 04:51:47;;;;;;;4.20;1.50;;;;;;;12.04;64.04;99514.28;5055631;28;20110;-71
2021/05/24 04:54:14;;;;;;;1.63;0.90;;;;;;;12.08;63.78;99508.56;5055737;28;20049;-70
2021/05/24 04:56:41;;;;;;;3.78;1.30;;;;;;;12.08;63.66;99502.34;5054693;28;20430;-70
2021/05/24 04:59:08;;;;;;;2.45;0.80;;;;;;;12.18;63.54;99506.03;5054513;28;20102;-71
2021/05/24 05:01:35;;;;;;;2.35;0.90;;;;;;;12.18;64.18;99499.81;5054474;28;20060;-70
2021/05/24 05:04:02;;;;;;;3.70;1.00;;;;;;;12.13;63.35;99480.59;5055474;28;20049;-70
2021/05/24 05:06:29;;;;;;;8.18;1.30;;;;;;;12.32;63.37;99491.53;5055768;28;20056;-69
2021/05/24 05:08:56;;;;;;;4.90;0.88;;;;;;;12.44;63.07;99494.22;5021638;28;20447;-70
2021/05/24 05:11:22;;;;;;;4.18;1.20;;;;;;;12.46;63.33;99511.88;5044538;28;20068;-71
2021/05/24 05:13:49;;;;;;;3.40;0.90;;;;;;;12.50;63.02;99491.06;5034261;28;20049;-70
2021/05/24 05:16:15;;;;;;;4.75;0.90;;;;;;;12.57;62.87;99497.63;5035513;28;20057;-70
2021/05/24 05:18:42;;;;;;;4.80;1.00;;;;;;;12.59;62.80;99487.63;5044812;28;20394;-70
2021/05/24 05:21:09;;;;;;;2.65;0.98;;;;;;;12.65;62.59;99496.16;5055566;28;20123;-71
2021/05/24 05:23:38;;;;;;;3.67;0.77;;;;;;;12.68;62.72;99496.75;5055427;28;20057;-69
2021/05/24 05:26:05;;;;;;;4.00;0.80;;;;;;;12.66;63.36;99493.38;5054144;28;20052;-71
2021/05/24 05:28:32;;;;;;;3.90;0.82;;;;;;;12.63;63.25;99499.81;5055104;28;20442;-71
2021/05/24 05:30:58;;;;;;;5.03;0.90;;;;;;;12.60;62.95;99492.00;5049394;28;20111;-70
2021/05/24 05:33:25;;;;;;;3.78;0.98;;;;;;;12.52;63.45;99497.13;5043919;28;20083;-70
2021/05/24 05:35:56;;;;;;;2.03;0.90;;;;;;;12.55;63.59;99501.41;5034503;28;20107;-70
2021/05/24 05:38:23;;;;;;;6.03;0.80;;;;;;;12.49;63.25;99489.38;5035314;28;20045;-70
2021/05/24 05:40:52;;;;;;;2.13;0.80;;;;;;;12.42;63.70;99482.81;5035300;28;20053;-72
2021/05/24 05:43:19;;;;;;;6.22;1.08;;;;;;;12.46;63.67;99481.56;5035351;28;20427;-71
2021/05/24 05:45:46;;;;;;;9.43;1.15;;;;;;;12.57;63.14;99497.63;5035228;28;20693;-71
2021/05/24 05:48:13;;;;;;;4.65;0.93;;;;;;;12.55;62.92;99478.16;5035225;28;20053;-71
2021/05/24 05:50:40;;;;;;;5.25;0.90;;;;;;;12.51;63.43;99474.03;5034840;28;20061;-71
2021/05/24 05:53:06;;;;;;;1.80;0.70;;;;;;;12.51;63.27;99474.03;5050714;28;20438;-72
2021/05/24 05:55:33;;;;;;;3.33;0.75;;;;;;;12.57;62.89;99461.97;5038201;28;20057;-71
2021/05/24 05:58:00;;;;;;;4.93;1.30;;;;;;;12.58;62.35;99469.88;5054725;28;20045;-78
2021/05/24 06:00:26;;;;;;;3.38;1.00;;;;;;;12.71;62.09;99472.44;5039224;28;20058;-78
2021/05/24 06:02:53;;;;;;;4.78;1.17;;;;;;;12.76;62.35;99472.06;5039199;28;20049;-78
2021/05/24 06:05:20;;;;;;;2.83;0.95;;;;;;;12.66;61.95;99437.13;5044142;28;20511;-74
2021/05/24 06:07:47;;;;;;;2.42;0.70;;;;;;;12.87;62.19;99469.31;5054280;28;20401;-72
2021/05/24 06:10:15;;;;;;;2.42;0.80;;;;;;;12.96;60.66;99469.56;5058587;28;20450;-71
2021/05/24 06:12:45;;;;;;;5.75;0.95;;;;;;;12.97;60.16;99464.06;5052281;28;20056;-68
2021/05/24 06:15:15;;;;;;;4.80;1.15;;;;;;;13.02;59.74;99474.44;5048144;28;20048;-70
2021/05/24 06:17:42;;;;;;;3.90;1.20;;;;;;;13.06;59.58;99464.31;5048257;28;20473;-70
2021/05/24 06:20:10;;;;;;;2.72;0.77;;;;;;;13.10;59.61;99461.25;5048365;28;20041;-72
2021/05/24 06:22:38;;;;;;;3.83;1.13;;;;;;;13.24;59.83;99459.25;5045280;28;20049;-71
2021/05/24 06:25:08;;;;;;;7.85;0.95;;;;;;;13.29;59.33;99455.19;5054147;28;20045;-73
2021/05/24 06:27:35;;;;;;;3.77;0.80;;;;;;;13.34;58.71;99460.16;5047703;28;20072;-71
2021/05/24 06:30:07;;;;;;;3.55;0.80;;;;;;;13.47;59.02;99461.84;5038350;28;20045;-72
2021/05/24 06:32:34;;;;;;;3.58;1.02;;;;;;;13.50;59.23;99461.59;5037316;28;20486;-72
2021/05/24 06:35:02;;;;;;;2.92;0.90;;;;;;;13.38;57.92;99455.38;5055273;28;20075;-73
2021/05/24 06:37:29;;;;;;;3.17;1.05;;;;;;;13.48;58.19;99455.50;5057855;28;20426;-71
2021/05/24 06:39:56;;;;;;;1.63;0.70;;;;;;;13.51;57.99;99469.47;5057293;28;20045;-72
2021/05/24 06:42:24;;;;;;;4.95;0.80;;;;;;;13.49;58.19;99463.41;5058203;28;20480;-70
2021/05/24 06:44:53;;;;;;;2.03;0.80;;;;;;;13.48;59.15;99447.44;5040982;28;20049;-71
2021/05/24 06:47:20;;;;;;;2.47;0.70;;;;;;;13.55;58.54;99456.66;5058108;28;20060;-72
2021/05/24 06:49:46;;;;;;;4.38;1.00;;;;;;;13.52;57.90;99454.25;5057991;28;20064;-72
2021/05/24 06:52:13;;;;;;;5.95;1.73;;;;;;;13.58;57.77;99459.09;5057818;28;20147;-72
2021/05/24 06:54:40;;;;;;;5.32;1.35;;;;;;;13.46;57.09;99446.72;5057737;28;20060;-80
2021/05/24 06:57:07;;;;;;;4.22;0.82;;;;;;;13.61;56.26;99461.50;5045498;28;20049;-76
2021/05/24 06:59:35;;;;;;;5.05;1.00;;;;;;;13.68;55.95;99460.00;5037329;28;20419;-69
2021/05/24 07:02:02;;;;;;;3.70;0.73;;;;;;;13.71;56.24;99462.44;5055618;28;20052;-74
2021/05/24 07:04:29;;;;;;;1.85;0.90;;;;;;;13.69;55.67;99455.50;5056150;28;20053;-73
2021/05/24 07:06:56;;;;;;;1.83;0.80;;;;;;;13.73;55.69;99458.78;5057700;28;20056;-72
2021/05/24 07:09:23;;;;;;;2.90;0.80;;;;;;;13.72;56.16;99457.91;5057774;28;20057;-73
2021/05/24 07:11:50;;;;;;;6.00;1.00;;;;;;;13.65;57.03;99462.97;5056672;28;20064;-75
2021/05/24 07:14:17;;;;;;;3.83;0.70;;;;;;;13.60;56.50;99469.69;5056054;28;20056;-76
2021/05/24 07:16:44;;;;;;;4.20;0.85;;;;;;;13.62;56.55;99463.22;5055850;28;20134;-75
2021/05/24 07:19:11;;;;;;;2.42;0.80;;;;;;;13.56;56.62;99459.22;5049627;28;20045;-76
2021/05/24 07:21:38;;;;;;;2.22;0.80;;;;;;;13.60;56.86;99453.59;5046059;28;20087;-74
2021/05/24 07:24:05;;;;;;;5.22;1.00;;;;;;;13.63;56.63;99443.47;5056737;28;20395;-74
2021/05/24 07:26:54;;;;;;;3.17;0.98;;;;;;;13.75;57.65;99452.28;5057146;28;20081;-75
2021/05/24 07:29:21;;;;;;;3.17;0.70;;;;;;;13.88;56.33;99451.25;5057490;28;20064;-74
2021/05/24 07:31:47;;;;;;;1.52;0.60;;;;;;;13.97;57.13;99443.25;5057189;28;20110;-74
2021/05/24 07:34:14;;;;;;;1.73;0.68;;;;;;;14.12;56.11;99443.72;5057178;28;20063;-75
2021/05/24 07:36:41;;;;;;;3.80;1.02;;;;;;;14.36;55.56;99449.75;5056301;28;20059;-76
2021/05/24 07:39:08;;;;;;;5.40;1.00;;;;;;;14.49;55.00;99436.94;5056427;28;20386;-76
2021/05/24 07:41:36;;;;;;;7.15;1.10;;;;;;;14.47;54.94;99441.59;5057271;28;20064;-76
2021/05/24 07:44:04;;;;;;;1.95;0.90;;;;;;;14.59;55.90;99442.31;5057055;28;20056;-73
2021/05/24 07:46:31;;;;;;;2.97;0.80;;;;;;;14.66;56.01;99434.59;5057157;28;20045;-74
2021/05/24 07:48:58;;;;;;;4.75;1.15;;;;;;;14.68;54.95;99432.59;5057084;28;20060;-75
2021/05/24 07:51:25;;;;;;;2.25;0.80;;;;;;;14.76;55.44;99430.09;5053832;28;20458;-76
2021/05/24 07:53:53;;;;;;;2.85;0.80;;;;;;;14.94;55.45;99443.69;5052061;28;20492;-78
2021/05/24 07:56:20;;;;;;;4.03;1.20;;;;;;;14.92;54.22;99448.38;5049801;28;20099;-77
2021/05/24 07:58:46;;;;;;;2.50;0.80;;;;;;;14.84;54.96;99452.72;5046259;28;20049;-75
2021/05/24 08:01:13;;;;;;;4.00;0.93;;;;;;;14.84;55.22;99448.22;5045888;28;20057;-75
2021/05/24 08:03:40;;;;;;;5.10;1.00;;;;;;;14.88;54.82;99448.78;5046989;28;20053;-75
2021/05/24 08:06:10;;;;;;;1.95;0.80;;;;;;;14.73;53.54;99450.97;5036777;28;20061;-77
2021/05/24 08:08:38;;;;;;;1.83;0.50;;;;;;;14.70;52.85;99452.09;5035691;28;20064;-75
2021/05/24 08:11:11;;;;;;;2.17;0.60;;;;;;;14.75;51.30;99449.91;5036377;28;20053;-78
2021/05/24 08:13:38;;;;;;;2.75;1.17;;;;;;;14.76;52.54;99458.81;5036918;28;20057;-78
2021/05/24 08:16:05;;;;;;;1.25;0.77;;;;;;;14.60;52.79;99453.94;5035711;28;20049;-79
2021/05/24 08:18:32;;;;;;;4.40;1.02;;;;;;;14.42;52.31;99438.47;5044648;28;20060;-78
2021/05/24 08:20:58;;;;;;;5.10;0.93;;;;;;;14.60;53.97;99448.56;5056016;28;20052;-76
2021/05/24 08:23:38;;;;;;;4.22;0.88;;;;;;;14.44;53.27;99447.22;5055582;28;20082;-74
2021/05/24 08:26:05;;;;;;;3.90;0.88;;;;;;;14.34;53.37;99435.63;5055814;28;20669;-74
2021/05/24 08:28:32;;;;;;;3.30;0.88;;;;;;;14.29;53.96;99433.34;5056099;28;20323;-75
2021/05/24 08:30:59;;;;;;;8.43;0.82;;;;;;;14.36;54.28;99455.13;5056368;28;20056;-75
2021/05/24 08:33:25;;;;;;;4.63;1.15;;;;;;;14.25;54.32;99448.88;5056016;28;20045;-76
2021/05/24 08:35:52;;;;;;;3.08;0.80;;;;;;;14.29;55.20;99452.13;5041166;28;20061;-74
2021/05/24 08:38:19;;;;;;;3.83;1.00;;;;;;;14.30;55.98;99448.47;5036355;28;20076;-73
2021/05/24 08:40:47;;;;;;;2.53;1.00;;;;;;;14.36;55.20;99449.75;5036380;28;20069;-75
2021/05/24 08:43:15;;;;;;;1.50;1.10;;;;;;;14.40;56.01;99445.81;5036142;28;20406;-77
2021/05/24 08:45:44;;;;;;;2.10;0.82;;;;;;;14.23;56.48;99440.09;5042941;28;20431;-79
2021/05/24 08:48:12;;;;;;;4.18;0.80;;;;;;;14.32;56.65;99442.97;5036860;28;20048;-79
2021/05/24 08:50:39;;;;;;;2.33;0.80;;;;;;;14.28;57.37;99441.53;5040437;28;20056;-76
2021/05/24 08:53:10;;;;;;;4.90;0.80;;;;;;;14.15;58.62;99431.88;5037848;28;20390;-75
2021/05/24 08:55:37;;;;;;;4.03;1.15;;;;;;;14.23;57.48;99448.16;5042023;28;20045;-76
2021/05/24 08:58:08;;;;;;;2.58;0.98;;;;;;;14.20;58.14;99444.88;5053948;28;20052;-74
2021/05/24 09:00:35;;;;;;;2.28;0.75;;;;;;;14.16;57.73;99436.25;5040205;28;20111;-76
2021/05/24 09:03:02;;;;;;;3.42;0.98;;;;;;;14.32;58.19;99451.03;5035624;28;20050;-77
2021/05/24 09:05:32;;;;;;;4.32;1.00;;;;;;;14.40;59.13;99432.41;5045192;28;20350;-77
2021/05/24 09:08:04;;;;;;;2.92;1.00;;;;;;;14.37;58.31;99427.28;5051725;28;20354;-76
2021/05/24 09:10:35;;;;;;;3.17;1.15;;;;;;;14.46;57.86;99439.91;5044532;28;20147;-74
2021/05/24 09:13:30;;;;;;;2.95;0.80;;;;;;;14.57;57.95;99435.41;5039107;28;20052;-72
2021/05/24 09:15:58;;;;;;;4.15;1.02;;;;;;;14.57;58.11;99428.19;5053534;28;20053;-74
2021/05/24 09:18:25;;;;;;;2.65;0.80;;;;;;;14.69;57.69;99433.44;5047897;28;20041;-75
2021/05/24 09:20:52;;;;;;;5.63;0.85;;;;;;;14.56;57.86;99422.97;5048875;28;20136;-73
2021/05/24 09:23:20;;;;;;;3.72;0.80;;;;;;;14.61;59.45;99426.09;5054726;28;20818;-73
2021/05/24 09:25:58;;;;;;;5.25;1.00;;;;;;;14.55;59.51;99418.56;5055376;28;20434;-75
2021/05/24 09:28:24;;;;;;;4.30;0.90;;;;;;;14.55;59.43;99421.25;5055433;28;20052;-75
2021/05/24 09:31:08;;;;;;;3.67;1.00;;;;;;;14.52;59.11;99420.56;5055443;28;20182;-77
2021/05/24 09:33:37;;;;;;;2.38;1.00;;;;;;;14.66;58.84;99421.16;5055221;28;20350;-74
2021/05/24 09:36:05;;;;;;;3.70;1.15;;;;;;;14.60;58.63;99416.34;5055117;28;20415;-76
2021/05/24 09:38:41;;;;;;;4.15;1.13;;;;;;;14.62;59.77;99425.97;5054942;28;20048;-75
2021/05/24 09:41:10;;;;;;;3.40;0.70;;;;;;;14.61;60.20;99420.72;5055301;28;20049;-75
2021/05/24 09:43:45;;;;;;;2.58;0.90;;;;;;;14.65;59.16;99430.19;5055229;28;20055;-76
2021/05/24 09:46:26;;;;;;;2.58;0.90;;;;;;;14.75;60.37;99425.72;5054270;28;20098;-75
2021/05/24 09:49:01;;;;;;;3.67;1.00;;;;;;;14.74;60.59;99426.72;5054989;28;20480;-78
2021/05/24 09:51:31;;;;;;;;;;;;;;;14.80;60.27;99425.28;5054468;28;20346;-76
2021/05/24 09:54:01;;;;;;;4.38;0.80;;;;;;;14.90;61.19;99415.41;5054835;28;20215;-76
2021/05/24 09:56:33;;;;;;;3.20;0.82;;;;;;;14.85;62.37;99423.03;5055108;28;20442;-74
2021/05/24 09:59:08;;;;;;;4.65;0.80;;;;;;;14.83;62.88;99424.16;5055120;28;20426;-78
2021/05/24 10:01:42;;;;;;;4.47;0.70;;;;;;;15.01;62.58;99422.50;5053800;28;20045;-77
2021/05/24 10:04:12;;;;;;;4.60;0.60;;;;;;;14.92;63.70;99429.56;5055099;28;20052;-81
2021/05/24 10:06:39;;;;;;;1.40;0.70;;;;;;;14.65;66.75;99417.63;5054812;28;20390;-76
2021/05/24 10:09:07;;;;;;;2.47;0.60;;;;;;;14.50;65.39;99409.09;5054745;28;20057;-71
2021/05/24 10:11:36;;;;;;;1.35;0.82;;;;;;;14.36;68.06;99407.66;5053575;28;20052;-70
2021/05/24 10:14:07;;;;;;;0.90;0.57;;;;;;;14.34;72.25;99414.16;5054329;28;20053;-78
2021/05/24 10:16:36;;;;;;;2.75;0.82;;;;;;;14.07;71.89;99418.28;5054526;28;20045;-76
2021/05/24 10:19:04;;;;;;;1.70;0.60;;;;;;;14.04;73.40;99402.44;5054045;28;20374;-72
2021/05/24 10:21:31;;;;;;;1.42;0.52;;;;;;;13.84;71.91;99407.75;5054273;28;20052;-75
2021/05/24 10:24:01;;;;;;;1.25;0.60;;;;;;;13.73;73.15;99392.56;5053459;28;20044;-70
2021/05/24 10:26:29;;;;;;;1.43;0.60;;;;;;;13.65;71.62;99409.34;5052641;28;20053;-71
2021/05/24 10:28:57;;;;;;;1.38;0.70;;;;;;;13.51;77.46;99405.13;5053889;28;20114;-69
2021/05/24 10:31:27;;;;;;;3.70;0.60;;;;;;;13.49;78.21;99403.56;5053709;28;20045;-71
2021/05/24 10:34:07;;;;;;;1.77;0.80;;;;;;;13.47;77.50;99394.81;5054410;28;20053;-71
2021/05/24 10:36:34;;;;;;;4.10;0.73;;;;;;;13.33;78.88;99399.50;5052579;28;20080;-69
2021/05/24 10:39:04;;;;;;;0.98;0.57;;;;;;;13.28;81.67;99402.56;5054355;28;20049;-71
2021/05/24 10:41:43;;;;;;;1.70;0.60;;;;;;;13.11;79.61;99406.69;5057059;28;20041;-70
2021/05/24 10:44:12;;;;;;;3.22;0.70;;;;;;;13.01;81.32;99403.91;5058410;28;20049;-70
2021/05/24 10:46:42;;;;;;;1.50;0.65;;;;;;;13.06;83.00;99419.59;5058625;28;20045;-70
2021/05/24 10:49:25;;;;;;;2.58;0.60;;;;;;;12.87;84.67;99418.44;5057614;28;20049;-71
2021/05/24 10:52:05;;;;;;;2.42;0.60;;;;;;;12.84;86.42;99421.38;5057086;28;20136;-72
2021/05/24 10:54:36;;;;;;;2.83;0.60;;;;;;;12.68;88.11;99429.81;5056919;28;20095;-71
2021/05/24 10:57:03;;;;;;;2.60;0.70;;;;;;;12.62;85.93;99430.31;5040420;28;20075;-72
2021/05/24 10:59:39;;;;;;;1.42;0.70;;;;;;;12.67;88.41;99427.25;5045414;28;20089;-73
2021/05/24 11:02:35;;;;;;;1.95;0.70;;;;;;;12.60;87.67;99433.13;5038452;28;20057;-72
2021/05/24 11:05:21;;;;;;;1.25;0.57;;;;;;;12.70;88.88;99424.34;5037172;28;20463;-71
2021/05/24 11:07:50;;;;;;;2.60;0.88;;;;;;;12.93;90.15;99429.63;5055076;28;20045;-74
2021/05/24 11:10:17;;;;;;;2.35;0.88;;;;;;;13.11;87.02;99428.09;5051222;28;20049;-71
2021/05/24 11:12:45;;;;;;;1.58;0.52;;;;;;;13.15;85.65;99434.06;5054260;28;20048;-71
2021/05/24 11:15:22;;;;;;;2.15;0.90;;;;;;;12.96;85.43;99430.22;5057624;28;20048;-71
2021/05/24 11:18:02;;;;;;;2.05;0.40;;;;;;;13.00;87.57;99426.31;5053475;28;20069;-69
2021/05/24 11:20:30;;;;;;;2.00;0.60;;;;;;;13.15;86.02;99428.69;5037694;28;20081;-72
2021/05/24 11:28:20;;;;;;;0.40;0.30;;;;;;;13.23;81.54;99420.84;5053604;28;20134;-69
2021/05/24 11:31:07;;;;;;;0.40;0.35;;;;;;;13.01;81.02;99411.94;5055044;28;20049;-72
2021/05/24 11:33:37;;;;;;;1.25;0.40;;;;;;;12.96;81.92;99402.59;5056009;28;20396;-72
2021/05/24 11:36:06;;;;;;;0.60;0.30;;;;;;;12.87;78.91;99402.38;5056632;28;20045;-71
2021/05/24 11:38:32;;;;;;;0.30;0.30;;;;;;;12.93;81.53;99405.53;5057215;28;20281;-71
2021/05/24 11:41:16;;;;;;;1.30;0.40;;;;;;;13.06;83.31;99391.97;5057026;28;20107;-72
2021/05/24 11:43:52;;;;;;;0.88;0.43;;;;;;;13.22;83.20;99391.50;5056121;28;20049;-72
2021/05/24 11:46:19;;;;;;;0.30;0.30;;;;;;;13.41;81.19;99390.81;5056008;28;20103;-71